createdAt,value
2023-02-14T00:01:58.477Z,100342.53
2023-02-14T00:04:25.257Z,100345.56
2023-02-14T00:06:51.867Z,100340.47
2023-02-14T00:09:19.768Z,100342.59
2023-02-14T00:11:46.303Z,100341.63
2023-02-14T00:14:31.642Z,100340.69
2023-02-14T00:16:58.372Z,100347.53
2023-02-14T00:19:24.963Z,100336.59
2023-02-14T00:21:51.755Z,100339.72
2023-02-14T00:24:23.914Z,100334.81
2023-02-14T00:26:51.302Z,100337.41
2023-02-14T00:29:20.905Z,100335.13
2023-02-14T00:31:47.449Z,100334.59
2023-02-14T00:34:16.375Z,100333.47
2023-02-14T00:36:43.493Z,100331.34
2023-02-14T00:39:13.427Z,100327.09
2023-02-14T00:41:40.975Z,100329.06
2023-02-14T00:44:10.144Z,100337.94
2023-02-14T00:46:37.001Z,100340.09
2023-02-14T00:49:04.277Z,100326.91
2023-02-14T00:51:31.219Z,100332.69
2023-02-14T00:53:57.906Z,100331.28
2023-02-14T00:56:24.463Z,100330.28
2023-02-14T00:58:51.013Z,100321.69
2023-02-14T01:01:18.670Z,100331.56
2023-02-14T01:03:45.222Z,100331.78
2023-02-14T01:06:11.746Z,100326.94
2023-02-14T01:08:38.412Z,100327.75
2023-02-14T01:11:17.017Z,100336.50
2023-02-14T01:13:44.239Z,100335.50
2023-02-14T01:16:15.569Z,100332.22
2023-02-14T01:18:43.272Z,100337.31
2023-02-14T01:21:11.891Z,100336.78
2023-02-14T01:23:38.417Z,100332.84
2023-02-14T01:26:06.824Z,100337.31
2023-02-14T01:28:33.880Z,100330.13
2023-02-14T01:31:09.306Z,100332.00
2023-02-14T01:33:36.279Z,100335.97
2023-02-14T01:36:03.059Z,100336.63
2023-02-14T01:38:29.810Z,100336.22
2023-02-14T01:40:57.064Z,100325.75
2023-02-14T01:43:23.744Z,100331.50
2023-02-14T01:45:50.316Z,100321.06
2023-02-14T01:48:21.036Z,100329.44
2023-02-14T01:50:49.577Z,100328.75
2023-02-14T01:53:23.754Z,100325.03
2023-02-14T01:55:59.233Z,100320.50
2023-02-14T01:58:31.971Z,100317.84
2023-02-14T02:00:59.174Z,100316.94
2023-02-14T02:03:39.936Z,100319.94
2023-02-14T02:06:26.356Z,100318.72
2023-02-14T02:09:04.949Z,100313.88
2023-02-14T02:11:31.603Z,100328.94
2023-02-14T02:13:58.105Z,100312.88
2023-02-14T02:16:33.528Z,100311.78
2023-02-14T02:19:27.191Z,100315.53
2023-02-14T02:22:30.312Z,100319.22
2023-02-14T02:25:19.290Z,100311.78
2023-02-14T02:28:03.889Z,100313.22
2023-02-14T02:31:01.921Z,100316.31
2023-02-14T02:33:52.867Z,100306.53
2023-02-14T02:36:34.407Z,100304.59
2023-02-14T02:39:16.099Z,100301.50
2023-02-14T02:42:04.189Z,100301.22
2023-02-14T02:44:51.868Z,100293.69
2023-02-14T02:47:33.541Z,100296.22
2023-02-14T02:50:47.107Z,100306.56
2023-02-14T02:53:43.986Z,100296.56
2023-02-14T02:56:35.031Z,100290.25
2023-02-14T02:59:18.252Z,100294.03
2023-02-14T03:02:05.117Z,100295.84
2023-02-14T03:04:53.344Z,100289.56
2023-02-14T03:07:34.873Z,100285.88
2023-02-14T03:10:07.949Z,100289.97
2023-02-14T03:12:34.335Z,100287.16
2023-02-14T03:15:06.873Z,100288.72
2023-02-14T03:17:39.813Z,100292.34
2023-02-14T03:20:16.814Z,100290.81
2023-02-14T03:23:14.808Z,100295.13
2023-02-14T03:26:00.240Z,100294.84
2023-02-14T03:28:43.821Z,100304.34
2023-02-14T03:31:23.934Z,100294.88
2023-02-14T03:34:01.591Z,100301.28
2023-02-14T03:36:35.278Z,100303.22
2023-02-14T03:39:21.840Z,100299.91
2023-02-14T03:41:53.336Z,100301.84
2023-02-14T03:44:25.862Z,100294.03
2023-02-14T03:47:00.599Z,100297.53
2023-02-14T03:49:31.194Z,100306.88
2023-02-14T03:52:01.015Z,100312.47
2023-02-14T03:54:30.297Z,100313.56
2023-02-14T03:57:08.012Z,100312.19
2023-02-14T03:59:35.604Z,100315.50
2023-02-14T04:02:34.400Z,100315.97
2023-02-14T04:05:03.959Z,100316.66
2023-02-14T04:07:30.460Z,100321.41
2023-02-14T04:09:57.192Z,100316.09
2023-02-14T04:12:36.875Z,100321.94
2023-02-14T04:15:05.101Z,100318.06
2023-02-14T04:17:50.224Z,100318.47
2023-02-14T04:20:16.802Z,100317.75
2023-02-14T04:22:43.265Z,100320.72
2023-02-14T04:25:09.737Z,100315.53
2023-02-14T04:27:36.201Z,100315.25
2023-02-14T04:30:03.770Z,100316.09
2023-02-14T04:32:30.321Z,100313.59
2023-02-14T04:34:56.880Z,100319.75
2023-02-14T04:37:23.434Z,100311.06
2023-02-14T04:39:49.955Z,100307.72
2023-02-14T04:42:16.503Z,100310.81
2023-02-14T04:44:43.085Z,100314.41
2023-02-14T04:47:09.711Z,100306.63
2023-02-14T04:49:36.781Z,100303.56
2023-02-14T04:52:03.973Z,100305.09
2023-02-14T04:54:30.577Z,100299.78
2023-02-14T04:56:57.078Z,100298.66
2023-02-14T04:59:25.080Z,100294.38
2023-02-14T05:01:52.320Z,100299.22
2023-02-14T05:04:19.165Z,100298.53
2023-02-14T05:06:45.719Z,100293.91
2023-02-14T05:09:12.209Z,100289.47
2023-02-14T05:11:38.744Z,100297.97
2023-02-14T05:14:05.280Z,100299.94
2023-02-14T05:16:31.828Z,100297.84
2023-02-14T05:18:58.405Z,100297.56
2023-02-14T05:21:24.977Z,100291.56
2023-02-14T05:23:51.488Z,100302.88
2023-02-14T05:26:18.040Z,100303.97
2023-02-14T05:28:44.529Z,100304.38
2023-02-14T05:31:11.099Z,100292.94
2023-02-14T05:33:37.798Z,100306.34
2023-02-14T05:36:04.683Z,100299.91
2023-02-14T05:38:31.508Z,100316.63
2023-02-14T05:40:58.316Z,100312.72
2023-02-14T05:43:26.240Z,100312.44
2023-02-14T05:45:54.270Z,100314.25
2023-02-14T05:48:20.928Z,100322.91
2023-02-14T05:50:47.435Z,100326.41
2023-02-14T05:53:14.452Z,100317.91
2023-02-14T05:55:41.181Z,100320.13
2023-02-14T05:58:07.860Z,100321.09
2023-02-14T06:00:34.943Z,100321.94
2023-02-14T06:03:01.488Z,100326.94
2023-02-14T06:05:28.057Z,100329.16
2023-02-14T06:07:54.618Z,100333.34
2023-02-14T06:10:24.549Z,100328.50
2023-02-14T06:12:52.973Z,100319.44
2023-02-14T06:15:20.255Z,100326.78
2023-02-14T06:17:59.733Z,100331.69
2023-02-14T06:20:26.252Z,100334.16
2023-02-14T06:22:53.151Z,100330.53
2023-02-14T06:25:20.317Z,100337.25
2023-02-14T06:27:49.282Z,100344.50
2023-02-14T06:30:17.914Z,100335.09
2023-02-14T06:32:44.636Z,100344.31
2023-02-14T06:35:11.590Z,100344.75
2023-02-14T06:37:38.868Z,100341.84
2023-02-14T06:40:06.208Z,100350.88
2023-02-14T06:42:32.740Z,100349.50
2023-02-14T06:44:59.311Z,100345.59
2023-02-14T06:47:25.892Z,100352.88
2023-02-14T06:49:52.459Z,100338.34
2023-02-14T06:52:19.012Z,100356.19
2023-02-14T06:54:45.532Z,100346.16
2023-02-14T06:57:12.063Z,100353.28
2023-02-14T06:59:38.669Z,100346.03
2023-02-14T07:02:05.271Z,100352.31
2023-02-14T07:04:31.897Z,100348.41
2023-02-14T07:06:58.354Z,100341.84
2023-02-14T07:09:24.868Z,100340.34
2023-02-14T07:11:51.463Z,100347.75
2023-02-14T07:14:17.979Z,100340.91
2023-02-14T07:16:44.440Z,100354.16
2023-02-14T07:19:10.985Z,100343.72
2023-02-14T07:21:37.553Z,100344.53
2023-02-14T07:24:04.039Z,100350.41
2023-02-14T07:26:30.476Z,100346.91
2023-02-14T07:28:56.966Z,100347.34
2023-02-14T07:31:23.835Z,100347.47
2023-02-14T07:33:51.676Z,100342.59
2023-02-14T07:36:19.234Z,100350.38
2023-02-14T07:38:45.766Z,100345.88
2023-02-14T07:41:12.334Z,100336.28
2023-02-14T07:43:39.711Z,100339.56
2023-02-14T07:46:06.646Z,100331.00
2023-02-14T07:48:34.292Z,100340.00
2023-02-14T07:51:01.816Z,100345.09
2023-02-14T07:53:28.541Z,100339.56
2023-02-14T07:55:55.059Z,100345.00
2023-02-14T07:58:21.817Z,100342.84
2023-02-14T08:00:48.612Z,100343.59
2023-02-14T08:03:15.699Z,100343.13
2023-02-14T08:05:42.248Z,100345.47
2023-02-14T08:08:08.933Z,100337.69
2023-02-14T08:10:35.411Z,100339.72
2023-02-14T08:13:02.253Z,100340.47
2023-02-14T08:15:50.022Z,100332.53
2023-02-14T08:18:18.380Z,100337.19
2023-02-14T08:20:46.650Z,100326.22
2023-02-14T08:23:13.192Z,100332.88
2023-02-14T08:25:40.604Z,100324.88
2023-02-14T08:28:07.173Z,100329.13
2023-02-14T08:30:36.763Z,100326.09
2023-02-14T08:33:03.909Z,100325.97
2023-02-14T08:35:30.488Z,100327.78
2023-02-14T08:37:57.317Z,100321.81
2023-02-14T08:40:24.391Z,100317.75
2023-02-14T08:42:50.988Z,100327.31
2023-02-14T08:45:17.568Z,100326.81
2023-02-14T08:47:44.220Z,100322.88
2023-02-14T08:50:13.773Z,100320.53
2023-02-14T08:52:41.365Z,100324.56
2023-02-14T08:55:08.010Z,100332.84
2023-02-14T08:57:34.498Z,100319.88
2023-02-14T09:00:01.116Z,100316.69
2023-02-14T09:02:27.696Z,100306.66
2023-02-14T09:04:54.147Z,100300.13
2023-02-14T09:07:20.839Z,100309.41
2023-02-14T09:09:47.468Z,100311.28
2023-02-14T09:12:14.040Z,100303.66
2023-02-14T09:14:46.185Z,100305.47
2023-02-14T09:17:13.892Z,100304.28
2023-02-14T09:19:40.473Z,100307.28
2023-02-14T09:22:09.032Z,100310.19
2023-02-14T09:24:37.622Z,100299.06
2023-02-14T09:27:04.671Z,100302.38
2023-02-14T09:29:32.151Z,100298.94
2023-02-14T09:32:01.230Z,100302.03
2023-02-14T09:34:47.183Z,100309.66
2023-02-14T09:37:33.183Z,100297.84
2023-02-14T09:39:59.708Z,100301.19
2023-02-14T09:42:35.259Z,100311.53
2023-02-14T09:45:07.041Z,100303.25
2023-02-14T09:47:39.977Z,100297.88
2023-02-14T09:50:27.987Z,100301.41
2023-02-14T09:53:01.375Z,100292.75
2023-02-14T09:55:30.990Z,100297.91
2023-02-14T09:58:06.089Z,100300.75
2023-02-14T10:00:38.080Z,100297.84
2023-02-14T10:03:28.791Z,100297.81
2023-02-14T10:06:10.294Z,100287.38
2023-02-14T10:09:02.611Z,100280.16
2023-02-14T10:11:29.435Z,100279.19
2023-02-14T10:14:08.709Z,100266.97
2023-02-14T10:16:45.758Z,100272.47
2023-02-14T10:19:40.065Z,100276.59
2023-02-14T10:22:14.209Z,100263.91
2023-02-14T10:24:47.791Z,100270.97
2023-02-14T10:27:17.011Z,100267.66
2023-02-14T10:29:43.634Z,100257.69
2023-02-14T10:32:15.242Z,100271.34
2023-02-14T10:34:51.780Z,100269.66
2023-02-14T10:37:23.380Z,100261.88
2023-02-14T10:39:58.585Z,100263.22
2023-02-14T10:42:52.780Z,100249.53
2023-02-14T10:45:28.852Z,100249.84
2023-02-14T10:48:08.327Z,100250.47
2023-02-14T10:50:56.396Z,100247.47
2023-02-14T10:53:27.546Z,100238.31
2023-02-14T10:56:03.703Z,100229.94
2023-02-14T10:58:36.082Z,100225.31
2023-02-14T11:01:10.846Z,100229.22
2023-02-14T11:03:39.742Z,100220.22
2023-02-14T11:06:08.751Z,100219.44
2023-02-14T11:08:38.198Z,100217.25
2023-02-14T11:11:07.490Z,100213.00
2023-02-14T11:13:37.183Z,100208.06
2023-02-14T11:16:10.212Z,100205.81
2023-02-14T11:18:39.583Z,100194.03
2023-02-14T11:21:17.877Z,100197.63
2023-02-14T11:23:49.659Z,100199.28
2023-02-14T11:26:46.785Z,100202.69
2023-02-14T11:29:17.348Z,100181.19
2023-02-14T11:31:44.092Z,100183.31
2023-02-14T11:34:37.129Z,100181.44
2023-02-14T11:37:16.370Z,100179.84
2023-02-14T11:39:42.994Z,100176.56
2023-02-14T11:42:12.161Z,100170.75
2023-02-14T11:44:55.063Z,100169.66
2023-02-14T11:47:29.163Z,100164.16
2023-02-14T11:50:06.113Z,100166.44
2023-02-14T11:52:34.353Z,100164.84
2023-02-14T11:55:01.500Z,100159.28
2023-02-14T11:57:34.524Z,100153.16
2023-02-14T12:00:11.632Z,100152.47
2023-02-14T12:02:40.923Z,100144.22
2023-02-14T12:05:20.655Z,100142.22
2023-02-14T12:07:59.693Z,100142.13
2023-02-14T12:10:38.135Z,100128.75
2023-02-14T12:13:24.640Z,100128.81
2023-02-14T12:15:56.728Z,100129.38
2023-02-14T12:18:38.260Z,100129.19
2023-02-14T12:21:23.488Z,100121.72
2023-02-14T12:24:08.121Z,100110.22
2023-02-14T12:26:59.067Z,100107.59
2023-02-14T12:29:30.439Z,100107.63
2023-02-14T12:32:02.277Z,100101.72
2023-02-14T12:34:28.935Z,100097.25
2023-02-14T12:37:19.582Z,100096.91
2023-02-14T12:40:01.355Z,100097.00
2023-02-14T12:43:19.085Z,100090.16
2023-02-14T12:45:59.835Z,100090.41
2023-02-14T12:48:35.288Z,100095.91
2023-02-14T12:51:15.474Z,100084.88
2023-02-14T12:54:14.182Z,100082.88
2023-02-14T12:56:40.583Z,100084.66
2023-02-14T12:59:31.941Z,100083.75
2023-02-14T13:02:36.001Z,100070.75
2023-02-14T13:05:21.034Z,100065.66
2023-02-14T13:08:22.645Z,100065.38
2023-02-14T13:10:55.684Z,100063.59
2023-02-14T13:13:46.532Z,100058.56
2023-02-14T13:16:16.106Z,100045.44
2023-02-14T13:19:03.611Z,100052.63
2023-02-14T13:21:35.477Z,100052.22
2023-02-14T13:24:19.775Z,100041.88
2023-02-14T13:26:50.293Z,100037.56
2023-02-14T13:29:20.579Z,100029.06
2023-02-14T13:31:48.472Z,100032.94
2023-02-14T13:34:33.286Z,100024.50
2023-02-14T13:37:02.590Z,100024.72
2023-02-14T13:39:38.688Z,100029.66
2023-02-14T13:42:06.650Z,100022.50
2023-02-14T13:44:38.922Z,100021.31
2023-02-14T13:47:15.161Z,100017.97
2023-02-14T13:49:48.782Z,100015.94
2023-02-14T13:52:48.724Z,100012.94
2023-02-14T13:55:23.492Z,100011.34
2023-02-14T13:58:05.585Z,100014.47
2023-02-14T14:00:43.754Z,100015.31
2023-02-14T14:03:15.112Z,100008.78
2023-02-14T14:05:56.864Z,100006.44
2023-02-14T14:08:23.484Z,100008.75
2023-02-14T14:10:55.539Z,100005.28
2023-02-14T14:13:40.469Z,100000.31
2023-02-14T14:16:19.372Z,99994.78
2023-02-14T14:18:45.922Z,100001.16
2023-02-14T14:21:26.330Z,99992.91
2023-02-14T14:24:14.370Z,99998.91
2023-02-14T14:26:47.514Z,100004.50
2023-02-14T14:29:30.335Z,99997.25
2023-02-14T14:31:57.172Z,99992.69
2023-02-14T14:34:26.541Z,99999.31
2023-02-14T14:37:04.348Z,99992.66
2023-02-14T14:39:33.444Z,99991.44
2023-02-14T14:42:14.836Z,99986.56
2023-02-14T14:44:54.688Z,99984.09
2023-02-14T14:47:41.783Z,99979.69
2023-02-14T14:50:19.664Z,99984.22
2023-02-14T14:52:49.506Z,99986.25
2023-02-14T14:55:21.238Z,99976.41
2023-02-14T14:57:53.443Z,99985.06
2023-02-14T15:00:28.557Z,99983.94
2023-02-14T15:03:13.311Z,99986.03
2023-02-14T15:05:42.672Z,99969.75
2023-02-14T15:08:25.436Z,99975.38
2023-02-14T15:11:13.009Z,99980.38
2023-02-14T15:13:49.709Z,99981.16
2023-02-14T15:16:20.747Z,99971.28
2023-02-14T15:18:48.853Z,99979.91
2023-02-14T15:21:16.776Z,99975.19
2023-02-14T15:23:46.579Z,99976.38
2023-02-14T15:26:22.220Z,99975.47
2023-02-14T15:28:58.258Z,99983.47
2023-02-14T15:31:29.485Z,99969.56
2023-02-14T15:33:59.933Z,99978.47
2023-02-14T15:36:27.203Z,99980.53
2023-02-14T15:38:56.758Z,99973.19
2023-02-14T15:41:24.875Z,99974.25
2023-02-14T15:43:53.925Z,99976.28
2023-02-14T15:46:31.110Z,99974.22
2023-02-14T15:49:01.229Z,99976.94
2023-02-14T15:51:35.822Z,99983.16
2023-02-14T15:54:07.177Z,99974.75
2023-02-14T15:56:37.176Z,99966.03
2023-02-14T15:59:17.152Z,99964.81
2023-02-14T16:01:54.920Z,99959.69
2023-02-14T16:04:27.521Z,99967.41
2023-02-14T16:07:06.732Z,99965.06
2023-02-14T16:09:34.630Z,99966.63
2023-02-14T16:12:31.990Z,99964.53
2023-02-14T16:15:10.714Z,99968.22
2023-02-14T16:17:37.332Z,99966.00
2023-02-14T16:20:43.709Z,99972.25
2023-02-14T16:23:21.074Z,99972.63
2023-02-14T16:25:48.656Z,99961.06
2023-02-14T16:28:15.830Z,99966.78
2023-02-14T16:30:44.406Z,99961.00
2023-02-14T16:33:17.722Z,99957.50
2023-02-14T16:35:45.857Z,99958.69
2023-02-14T16:38:16.205Z,99955.28
2023-02-14T16:40:46.177Z,99962.56
2023-02-14T16:43:14.921Z,99954.66
2023-02-14T16:45:42.502Z,99951.59
2023-02-14T16:48:09.575Z,99961.19
2023-02-14T16:50:38.309Z,99962.81
2023-02-14T16:53:08.913Z,99973.03
2023-02-14T16:55:35.573Z,99966.03
2023-02-14T16:58:02.993Z,99974.41
2023-02-14T17:00:29.563Z,99977.00
2023-02-14T17:03:06.240Z,99974.31
2023-02-14T17:05:35.515Z,99976.13
2023-02-14T17:08:04.488Z,99988.47
2023-02-14T17:10:31.904Z,99984.25
2023-02-14T17:12:59.489Z,99985.84
2023-02-14T17:15:27.419Z,99994.22
2023-02-14T17:18:05.246Z,99998.78
2023-02-14T17:20:31.723Z,99994.63
2023-02-14T17:22:58.374Z,100004.06
2023-02-14T17:25:25.469Z,100001.47
2023-02-14T17:27:52.194Z,100008.34
2023-02-14T17:30:18.857Z,100007.03
2023-02-14T17:32:45.593Z,100008.09
2023-02-14T17:35:14.114Z,100001.56
2023-02-14T17:37:40.652Z,100010.50
2023-02-14T17:40:07.852Z,100005.00
2023-02-14T17:42:35.448Z,100005.19
2023-02-14T17:45:02.465Z,100016.38
2023-02-14T17:47:29.632Z,100008.81
2023-02-14T17:49:57.166Z,100013.28
2023-02-14T17:52:24.373Z,100018.25
2023-02-14T17:54:51.088Z,100014.63
2023-02-14T17:57:18.140Z,100011.97
2023-02-14T17:59:45.470Z,100010.97
2023-02-14T18:02:12.353Z,100010.72
2023-02-14T18:04:39.130Z,100010.34
2023-02-14T18:07:05.901Z,100010.25
2023-02-14T18:09:32.666Z,100004.09
2023-02-14T18:11:59.194Z,100008.56
2023-02-14T18:14:25.912Z,100007.47
2023-02-14T18:16:52.631Z,100005.63
2023-02-14T18:19:19.212Z,100005.88
2023-02-14T18:21:46.214Z,100011.47
2023-02-14T18:24:13.257Z,100000.88
2023-02-14T18:26:41.101Z,100003.91
2023-02-14T18:29:08.606Z,100005.72
2023-02-14T18:31:38.000Z,100007.91
2023-02-14T18:34:05.187Z,100004.25
2023-02-14T18:36:32.372Z,100004.91
2023-02-14T18:38:59.283Z,99996.25
2023-02-14T18:41:26.999Z,99995.56
2023-02-14T18:43:53.856Z,99996.59
2023-02-14T18:46:27.276Z,99990.66
2023-02-14T18:48:55.223Z,99988.97
2023-02-14T18:51:27.473Z,99990.66
2023-02-14T18:53:56.446Z,99984.19
2023-02-14T18:56:26.502Z,99982.41
2023-02-14T18:58:56.799Z,99981.50
2023-02-14T19:01:30.512Z,99977.91
2023-02-14T19:03:59.677Z,99974.06
2023-02-14T19:06:29.377Z,99971.63
2023-02-14T19:08:56.496Z,99969.00
2023-02-14T19:11:25.662Z,99968.66
2023-02-14T19:13:57.526Z,99971.53
2023-02-14T19:16:27.161Z,99971.69
2023-02-14T19:18:54.117Z,99958.41
2023-02-14T19:21:23.528Z,99974.00
2023-02-14T19:23:51.911Z,99973.31
2023-02-14T19:26:21.083Z,99972.41
2023-02-14T19:28:50.363Z,99963.56
2023-02-14T19:31:17.399Z,99966.56
2023-02-14T19:33:45.742Z,99965.75
2023-02-14T19:36:14.485Z,99967.94
2023-02-14T19:38:42.821Z,99971.13
2023-02-14T19:41:20.628Z,99957.75
2023-02-14T19:43:47.906Z,99961.78
2023-02-14T19:46:16.284Z,99952.78
2023-02-14T19:48:44.634Z,99960.13
2023-02-14T19:51:21.180Z,99954.13
2023-02-14T19:53:48.291Z,99945.16
2023-02-14T19:56:19.928Z,99952.47
2023-02-14T19:58:46.958Z,99949.63
2023-02-14T20:01:23.281Z,99947.78
2023-02-14T20:03:49.941Z,99947.31
2023-02-14T20:06:16.526Z,99946.44
2023-02-14T20:08:43.116Z,99949.63
2023-02-14T20:11:23.032Z,99946.66
2023-02-14T20:13:49.488Z,99943.34
2023-02-14T20:16:15.974Z,99953.00
2023-02-14T20:18:42.448Z,99949.03
2023-02-14T20:21:16.674Z,99948.00
2023-02-14T20:23:43.315Z,99948.16
2023-02-14T20:26:14.672Z,99940.84
2023-02-14T20:28:41.530Z,99948.16
2023-02-14T20:31:13.067Z,99947.19
2023-02-14T20:33:40.152Z,99963.81
2023-02-14T20:36:09.655Z,99945.69
2023-02-14T20:38:36.128Z,99952.31
2023-02-14T20:41:11.230Z,99945.78
2023-02-14T20:43:38.799Z,99949.25
2023-02-14T20:46:06.995Z,99947.00
2023-02-14T20:48:34.504Z,99951.81
2023-02-14T20:51:14.357Z,99956.53
2023-02-14T20:53:41.903Z,99963.03
2023-02-14T20:56:08.756Z,99952.03
2023-02-14T20:58:36.726Z,99953.22
2023-02-14T21:01:13.178Z,99949.81
2023-02-14T21:03:41.478Z,99949.44
2023-02-14T21:06:11.535Z,99947.81
2023-02-14T21:08:38.798Z,99938.81
2023-02-14T21:11:06.834Z,99943.72
2023-02-14T21:13:33.980Z,99934.59
2023-02-14T21:16:17.217Z,99941.78
2023-02-14T21:18:48.504Z,99941.88
2023-02-14T21:21:20.291Z,99936.28
2023-02-14T21:23:49.338Z,99936.50
2023-02-14T21:26:16.264Z,99934.41
2023-02-14T21:28:42.791Z,99939.97
2023-02-14T21:31:12.389Z,99937.50
2023-02-14T21:33:39.351Z,99939.31
2023-02-14T21:36:06.817Z,99937.00
2023-02-14T21:38:33.899Z,99938.63
2023-02-14T21:41:05.106Z,99932.88
2023-02-14T21:43:36.674Z,99937.31
2023-02-14T21:46:08.457Z,99933.16
2023-02-14T21:48:53.646Z,99935.34
2023-02-14T21:51:20.996Z,99922.44
2023-02-14T21:53:48.222Z,99929.25
2023-02-14T21:56:18.044Z,99922.88
2023-02-14T21:58:44.702Z,99920.53
2023-02-14T22:01:16.599Z,99920.03
2023-02-14T22:03:43.340Z,99926.50
2023-02-14T22:06:10.450Z,99912.78
2023-02-14T22:08:37.076Z,99916.91
2023-02-14T22:11:08.757Z,99913.78
2023-02-14T22:13:36.144Z,99916.72
2023-02-14T22:16:07.117Z,99909.31
2023-02-14T22:18:33.939Z,99903.00
2023-02-14T22:21:01.994Z,99915.97
2023-02-14T22:23:35.770Z,99918.22
2023-02-14T22:26:25.639Z,99915.69
2023-02-14T22:28:56.770Z,99911.25
2023-02-14T22:31:24.925Z,99919.34
2023-02-14T22:33:51.825Z,99908.59
2023-02-14T22:36:18.335Z,99907.41
2023-02-14T22:38:44.854Z,99912.28
2023-02-14T22:41:14.238Z,99900.59
2023-02-14T22:43:41.741Z,99899.34
2023-02-14T22:46:19.360Z,99896.31
2023-02-14T22:48:47.131Z,99888.44
2023-02-14T22:51:21.904Z,99889.53
2023-02-14T22:53:50.171Z,99884.22
2023-02-14T22:56:22.693Z,99893.91
2023-02-14T22:58:53.395Z,99889.31
2023-02-14T23:01:21.518Z,99878.31
2023-02-14T23:03:52.025Z,99886.00
2023-02-14T23:06:18.693Z,99881.81
2023-02-14T23:08:47.218Z,99891.50
2023-02-14T23:11:16.965Z,99885.16
2023-02-14T23:14:02.074Z,99882.28
2023-02-14T23:16:47.673Z,99887.50
2023-02-14T23:19:35.499Z,99881.94
2023-02-14T23:22:11.064Z,99882.88
2023-02-14T23:24:37.958Z,99881.75
2023-02-14T23:27:04.966Z,99890.34
2023-02-14T23:29:31.771Z,99890.28
2023-02-14T23:31:58.453Z,99883.13
2023-02-14T23:34:27.202Z,99881.28
2023-02-14T23:36:53.671Z,99883.34
2023-02-14T23:39:20.491Z,99895.16
2023-02-14T23:41:49.900Z,99889.84
2023-02-14T23:44:17.386Z,99890.66
2023-02-14T23:46:44.139Z,99894.31
2023-02-14T23:49:11.293Z,99892.28
2023-02-14T23:51:37.844Z,99886.81
2023-02-14T23:54:04.576Z,99885.81
2023-02-14T23:56:31.280Z,99885.59
2023-02-14T23:58:57.832Z,99893.03
